Lynx, Ohio
Current Conditions -  °F | °C
As of 1:35 PM on Thursday 23 Oct 2014 (Local Time) from KFGX Reporting Station
Overcast Overcast  
Wind Chill: 56°   Ceiling: 3100
Heat Index: 56°   Visibility: 10mi
Dew Point: 42°   Wind: 0mph
Humidity: 59%   Direction: NA
Pressure: 30.22"   Gusts: NA
Location:  38.77°N, 83.41°W
Report Text: KFGX 231735Z AUTO 00000KT 10SM OVC031 13/06 A3022 RMK AO2 T01330055
Loading
Personal Weather Stations






























Interactive Weather Map
Tropical Storm Tracking
New forecast layout! Learn more

10-Day Weather Forecast

Advertisements
Track Severe Weather on mobile